Areado, Brazil
Current Conditions -  °F | °C
As of 7:00 AM on Saturday 22 Nov 2014 (Local Time) from SBYS Reporting Station
Clear Clear  
Wind Chill: 72°   Ceiling: Unl
Heat Index: 72°   Visibility: 4mi
Dew Point: 64°   Wind: 3mph
Humidity: 78%   Direction: 110°ESE
Pressure: 29.94"   Gusts: NA
Location:  21.36°S, 46.15°W
Report Text: SBYS 220900Z 11003KT 6000 NSC 22/18 Q1014
Loading
Personal Weather Stations






























Interactive Weather Map New forecast layout! Learn more

10-Day Weather Forecast

Advertisements
Track Severe Weather on mobile